createdAt,value
2022-09-21T00:27:54.826Z,1024.14
2022-09-21T00:56:35.005Z,1024.16
2022-09-21T01:25:19.185Z,1024.19
2022-09-21T01:54:15.377Z,1024.34
2022-09-21T02:23:07.275Z,1024.16
2022-09-21T02:51:59.955Z,1024.13
2022-09-21T03:20:56.189Z,1024.15
2022-09-21T03:49:49.973Z,1024.33
2022-09-21T04:18:47.102Z,1024.33
2022-09-21T04:47:31.104Z,1024.39
2022-09-21T05:16:08.969Z,1024.53
2022-09-21T05:44:40.421Z,1024.71
2022-09-21T06:13:22.317Z,1024.8
2022-09-21T06:41:55.283Z,1024.85
2022-09-21T07:10:23.773Z,1024.91
2022-09-21T07:38:53.301Z,1024.78
2022-09-21T08:07:43.043Z,1024.78
2022-09-21T08:36:06.261Z,1024.69
2022-09-21T09:04:32.959Z,1024.55
2022-09-21T09:33:02.566Z,1024.38
2022-09-21T10:01:44.573Z,1024.08
2022-09-21T10:30:15.571Z,1023.82
2022-09-21T10:58:41.946Z,1023.48
2022-09-21T11:27:18.594Z,1023.17
2022-09-21T11:55:56.669Z,1022.73
2022-09-21T12:24:34.314Z,1022.57
2022-09-21T12:53:02.336Z,1022.38
2022-09-21T13:21:38.790Z,1022.24
2022-09-21T13:50:01.711Z,1021.99
2022-09-21T14:18:28.042Z,1021.87
2022-09-21T14:47:01.239Z,1021.77
2022-09-21T15:15:31.474Z,1021.75
2022-09-21T15:43:50.019Z,1021.81
2022-09-21T16:12:17.991Z,1021.95
2022-09-21T16:40:49.567Z,1022.09
2022-09-21T17:09:30.336Z,1022.32
2022-09-21T17:37:34.363Z,1022.49
2022-09-21T18:06:02.307Z,1022.67
2022-09-21T18:34:24.422Z,1022.85
2022-09-21T19:03:20.056Z,1022.92
2022-09-21T19:31:26.854Z,1023.14
2022-09-21T19:59:56.279Z,1023.16
2022-09-21T20:28:08.824Z,1023.13
2022-09-21T20:56:39.974Z,1023.16
2022-09-21T21:25:15.618Z,1023.15
2022-09-21T21:54:00.286Z,1023.15
2022-09-21T22:22:25.782Z,1023.02
2022-09-21T22:51:09.404Z,1022.89
2022-09-21T23:19:49.867Z,1022.79
2022-09-21T23:48:31.896Z,1022.8
